Airport ICAO


07:26 UTC

11°C

Overcast


An affordable passengers' Moving Map for your aircraft. Made for the iPad and the iPhone
More information here

EGSS Stansted


London UNITED KINGDOM   VFR


METAR EGSS 200720Z AUTO 22008KT 6000 FEW003 OVC042 11/10 Q1019 0h06min

TAF EGSS 200503Z 2006/2112 23005KT 2500 BR BCFG FEW006 SCT040 TEMPO 2006/2009 0800 FG PROB30 TEMPO 2006/2008 0300 BKN001 BECMG 2008/2011 9999 NSW PROB40 TEMPO 2008/2011 BKN007 BECMG 2107/2110 17015KT 2h23min





NOTAMS

OPEN